sensor_id;sensor_type;location;lat;lon;timestamp;temperature;humidity
45319;DHT22;31057;48.498;32.260;2023-04-25T00:00:31;7.60;99.90
45319;DHT22;31057;48.498;32.260;2023-04-25T00:02:33;7.50;99.90
45319;DHT22;31057;48.498;32.260;2023-04-25T00:04:36;7.60;99.90
45319;DHT22;31057;48.498;32.260;2023-04-25T00:06:40;7.50;99.90
45319;DHT22;31057;48.498;32.260;2023-04-25T00:08:42;7.50;99.90
45319;DHT22;31057;48.498;32.260;2023-04-25T00:10:44;7.30;99.90
45319;DHT22;31057;48.498;32.260;2023-04-25T00:12:45;7.20;99.90
45319;DHT22;31057;48.498;32.260;2023-04-25T00:14:48;7.10;99.90
45319;DHT22;31057;48.498;32.260;2023-04-25T00:16:51;7.10;99.90
45319;DHT22;31057;48.498;32.260;2023-04-25T00:18:53;7.00;99.90
45319;DHT22;31057;48.498;32.260;2023-04-25T00:20:55;7.00;99.90
45319;DHT22;31057;48.498;32.260;2023-04-25T00:22:57;7.10;99.90
45319;DHT22;31057;48.498;32.260;2023-04-25T00:24:59;7.00;99.90
45319;DHT22;31057;48.498;32.260;2023-04-25T00:27:01;7.00;99.90
45319;DHT22;31057;48.498;32.260;2023-04-25T00:29:04;7.10;99.90
45319;DHT22;31057;48.498;32.260;2023-04-25T00:31:06;7.00;99.90
45319;DHT22;31057;48.498;32.260;2023-04-25T00:33:08;7.00;99.90
45319;DHT22;31057;48.498;32.260;2023-04-25T00:35:10;6.80;99.90
45319;DHT22;31057;48.498;32.260;2023-04-25T00:37:12;6.90;99.90
45319;DHT22;31057;48.498;32.260;2023-04-25T00:39:14;6.80;99.90
45319;DHT22;31057;48.498;32.260;2023-04-25T00:41:16;6.60;99.90
45319;DHT22;31057;48.498;32.260;2023-04-25T00:43:18;6.60;99.90
45319;DHT22;31057;48.498;32.260;2023-04-25T00:45:20;6.50;99.90
45319;DHT22;31057;48.498;32.260;2023-04-25T00:47:22;6.60;99.90
45319;DHT22;31057;48.498;32.260;2023-04-25T00:49:25;6.50;99.90
45319;DHT22;31057;48.498;32.260;2023-04-25T00:51:27;6.50;99.90
45319;DHT22;31057;48.498;32.260;2023-04-25T00:53:30;6.60;99.90
45319;DHT22;31057;48.498;32.260;2023-04-25T00:55:33;6.70;99.90
45319;DHT22;31057;48.498;32.260;2023-04-25T00:57:38;6.80;99.90
45319;DHT22;31057;48.498;32.260;2023-04-25T00:59:44;6.70;99.90
45319;DHT22;31057;48.498;32.260;2023-04-25T01:01:47;6.80;99.90
45319;DHT22;31057;48.498;32.260;2023-04-25T01:03:49;6.60;99.90
45319;DHT22;31057;48.498;32.260;2023-04-25T01:05:52;6.60;99.90
45319;DHT22;31057;48.498;32.260;2023-04-25T01:07:54;6.60;99.90
45319;DHT22;31057;48.498;32.260;2023-04-25T01:09:56;6.70;99.90
45319;DHT22;31057;48.498;32.260;2023-04-25T01:11:58;6.70;99.90
45319;DHT22;31057;48.498;32.260;2023-04-25T01:14:00;6.70;99.90
45319;DHT22;31057;48.498;32.260;2023-04-25T01:16:05;6.60;99.90
45319;DHT22;31057;48.498;32.260;2023-04-25T01:18:07;6.50;99.90
45319;DHT22;31057;48.498;32.260;2023-04-25T01:20:10;6.50;99.90
45319;DHT22;31057;48.498;32.260;2023-04-25T01:22:13;6.50;99.90
45319;DHT22;31057;48.498;32.260;2023-04-25T01:24:16;6.60;99.90
45319;DHT22;31057;48.498;32.260;2023-04-25T01:26:18;6.70;99.90
45319;DHT22;31057;48.498;32.260;2023-04-25T01:28:22;6.70;99.90
45319;DHT22;31057;48.498;32.260;2023-04-25T01:30:27;6.70;99.90
45319;DHT22;31057;48.498;32.260;2023-04-25T01:32:31;6.60;99.90
45319;DHT22;31057;48.498;32.260;2023-04-25T01:34:40;6.60;99.90
45319;DHT22;31057;48.498;32.260;2023-04-25T01:36:42;6.50;99.90
45319;DHT22;31057;48.498;32.260;2023-04-25T01:38:44;6.60;99.90
45319;DHT22;31057;48.498;32.260;2023-04-25T01:40:49;6.70;99.90
45319;DHT22;31057;48.498;32.260;2023-04-25T01:42:52;6.70;99.90
45319;DHT22;31057;48.498;32.260;2023-04-25T01:44:54;6.70;99.90
45319;DHT22;31057;48.498;32.260;2023-04-25T01:46:56;6.80;99.90
45319;DHT22;31057;48.498;32.260;2023-04-25T01:48:58;6.80;99.90
45319;DHT22;31057;48.498;32.260;2023-04-25T01:51:00;6.60;99.90
45319;DHT22;31057;48.498;32.260;2023-04-25T01:53:02;6.50;99.90
45319;DHT22;31057;48.498;32.260;2023-04-25T01:55:05;6.40;99.90
45319;DHT22;31057;48.498;32.260;2023-04-25T01:57:07;6.40;99.90
45319;DHT22;31057;48.498;32.260;2023-04-25T01:59:09;6.30;99.90
45319;DHT22;31057;48.498;32.260;2023-04-25T02:01:11;6.50;99.90
45319;DHT22;31057;48.498;32.260;2023-04-25T02:03:13;6.50;99.90
45319;DHT22;31057;48.498;32.260;2023-04-25T02:05:15;6.40;99.90
45319;DHT22;31057;48.498;32.260;2023-04-25T02:07:16;6.30;99.90
45319;DHT22;31057;48.498;32.260;2023-04-25T02:09:18;6.40;99.90
45319;DHT22;31057;48.498;32.260;2023-04-25T02:11:20;6.40;99.90
45319;DHT22;31057;48.498;32.260;2023-04-25T02:13:22;6.40;99.90
45319;DHT22;31057;48.498;32.260;2023-04-25T02:15:24;6.40;99.90
45319;DHT22;31057;48.498;32.260;2023-04-25T02:17:26;6.30;99.90
45319;DHT22;31057;48.498;32.260;2023-04-25T02:19:28;6.20;99.90
45319;DHT22;31057;48.498;32.260;2023-04-25T02:21:32;6.10;99.90
45319;DHT22;31057;48.498;32.260;2023-04-25T02:23:34;6.00;99.90
45319;DHT22;31057;48.498;32.260;2023-04-25T02:25:36;5.90;99.90
45319;DHT22;31057;48.498;32.260;2023-04-25T02:27:38;5.90;99.90
45319;DHT22;31057;48.498;32.260;2023-04-25T02:29:40;5.90;99.90
45319;DHT22;31057;48.498;32.260;2023-04-25T02:31:42;5.90;99.90
45319;DHT22;31057;48.498;32.260;2023-04-25T02:33:44;5.90;99.90
45319;DHT22;31057;48.498;32.260;2023-04-25T02:35:46;5.90;99.90
45319;DHT22;31057;48.498;32.260;2023-04-25T02:37:48;5.90;99.90
45319;DHT22;31057;48.498;32.260;2023-04-25T02:39:50;5.90;99.90
45319;DHT22;31057;48.498;32.260;2023-04-25T02:41:52;5.80;99.90
45319;DHT22;31057;48.498;32.260;2023-04-25T02:43:54;5.90;99.90
45319;DHT22;31057;48.498;32.260;2023-04-25T02:45:56;5.90;99.90
45319;DHT22;31057;48.498;32.260;2023-04-25T02:47:58;6.00;99.90
45319;DHT22;31057;48.498;32.260;2023-04-25T02:50:00;6.00;99.90
45319;DHT22;31057;48.498;32.260;2023-04-25T02:52:02;6.00;99.90
45319;DHT22;31057;48.498;32.260;2023-04-25T02:54:04;6.00;99.90
45319;DHT22;31057;48.498;32.260;2023-04-25T02:56:06;6.10;99.90
45319;DHT22;31057;48.498;32.260;2023-04-25T02:58:08;6.10;99.90
45319;DHT22;31057;48.498;32.260;2023-04-25T03:00:11;6.10;99.90
45319;DHT22;31057;48.498;32.260;2023-04-25T03:02:13;6.10;99.90
45319;DHT22;31057;48.498;32.260;2023-04-25T03:04:15;6.00;99.90
45319;DHT22;31057;48.498;32.260;2023-04-25T03:06:17;6.00;99.90
45319;DHT22;31057;48.498;32.260;2023-04-25T03:08:19;6.00;99.90
45319;DHT22;31057;48.498;32.260;2023-04-25T03:10:21;6.10;99.90
45319;DHT22;31057;48.498;32.260;2023-04-25T03:12:23;6.10;99.90
45319;DHT22;31057;48.498;32.260;2023-04-25T03:14:25;6.20;99.90
45319;DHT22;31057;48.498;32.260;2023-04-25T03:16:26;6.20;99.90
45319;DHT22;31057;48.498;32.260;2023-04-25T03:18:28;6.20;99.90
45319;DHT22;31057;48.498;32.260;2023-04-25T03:20:31;6.20;99.90
45319;DHT22;31057;48.498;32.260;2023-04-25T03:22:33;6.30;99.90
45319;DHT22;31057;48.498;32.260;2023-04-25T03:24:35;6.20;99.90
45319;DHT22;31057;48.498;32.260;2023-04-25T03:26:38;6.30;99.90
45319;DHT22;31057;48.498;32.260;2023-04-25T03:28:40;6.30;99.90
45319;DHT22;31057;48.498;32.260;2023-04-25T03:30:42;6.30;99.90
45319;DHT22;31057;48.498;32.260;2023-04-25T03:32:44;6.40;99.90
45319;DHT22;31057;48.498;32.260;2023-04-25T03:34:46;6.40;99.90
45319;DHT22;31057;48.498;32.260;2023-04-25T03:36:48;6.40;99.90
45319;DHT22;31057;48.498;32.260;2023-04-25T03:38:50;6.50;99.90
45319;DHT22;31057;48.498;32.260;2023-04-25T03:40:52;6.60;99.90
45319;DHT22;31057;48.498;32.260;2023-04-25T03:42:54;6.60;99.90
45319;DHT22;31057;48.498;32.260;2023-04-25T03:44:56;6.60;99.90
45319;DHT22;31057;48.498;32.260;2023-04-25T03:46:58;6.60;99.90
45319;DHT22;31057;48.498;32.260;2023-04-25T03:49:00;6.60;99.90
45319;DHT22;31057;48.498;32.260;2023-04-25T03:51:02;6.70;99.90
45319;DHT22;31057;48.498;32.260;2023-04-25T03:53:04;6.80;99.90
45319;DHT22;31057;48.498;32.260;2023-04-25T03:55:06;6.90;99.90
45319;DHT22;31057;48.498;32.260;2023-04-25T03:57:08;6.90;99.90
45319;DHT22;31057;48.498;32.260;2023-04-25T03:59:10;6.90;99.90
45319;DHT22;31057;48.498;32.260;2023-04-25T04:01:12;7.00;99.90
45319;DHT22;31057;48.498;32.260;2023-04-25T04:03:14;7.10;99.90
45319;DHT22;31057;48.498;32.260;2023-04-25T04:05:16;7.30;99.90
45319;DHT22;31057;48.498;32.260;2023-04-25T04:07:18;7.30;99.90
45319;DHT22;31057;48.498;32.260;2023-04-25T04:09:20;7.40;99.90
45319;DHT22;31057;48.498;32.260;2023-04-25T04:11:22;7.50;99.90
45319;DHT22;31057;48.498;32.260;2023-04-25T04:13:28;7.60;99.90
45319;DHT22;31057;48.498;32.260;2023-04-25T04:15:30;7.60;99.90
45319;DHT22;31057;48.498;32.260;2023-04-25T04:17:34;7.60;99.90
45319;DHT22;31057;48.498;32.260;2023-04-25T04:19:36;7.70;99.90
45319;DHT22;31057;48.498;32.260;2023-04-25T04:21:38;7.80;99.90
45319;DHT22;31057;48.498;32.260;2023-04-25T04:23:40;7.90;99.90
45319;DHT22;31057;48.498;32.260;2023-04-25T04:25:42;8.10;99.90
45319;DHT22;31057;48.498;32.260;2023-04-25T04:27:44;8.20;99.90
45319;DHT22;31057;48.498;32.260;2023-04-25T04:29:47;8.30;99.90
45319;DHT22;31057;48.498;32.260;2023-04-25T04:31:49;8.30;99.90
45319;DHT22;31057;48.498;32.260;2023-04-25T04:33:52;8.40;99.90
45319;DHT22;31057;48.498;32.260;2023-04-25T04:35:54;8.60;99.90
45319;DHT22;31057;48.498;32.260;2023-04-25T04:37:57;8.70;99.90
45319;DHT22;31057;48.498;32.260;2023-04-25T04:39:59;8.70;99.90
45319;DHT22;31057;48.498;32.260;2023-04-25T04:42:00;8.70;99.90
45319;DHT22;31057;48.498;32.260;2023-04-25T04:44:06;8.80;99.90
45319;DHT22;31057;48.498;32.260;2023-04-25T04:46:10;8.90;99.90
45319;DHT22;31057;48.498;32.260;2023-04-25T04:48:14;9.00;99.90
45319;DHT22;31057;48.498;32.260;2023-04-25T04:50:16;9.20;99.90
45319;DHT22;31057;48.498;32.260;2023-04-25T04:52:18;9.20;99.90
45319;DHT22;31057;48.498;32.260;2023-04-25T04:54:20;9.20;99.90
45319;DHT22;31057;48.498;32.260;2023-04-25T04:56:22;9.30;99.90
45319;DHT22;31057;48.498;32.260;2023-04-25T04:58:25;9.40;99.90
45319;DHT22;31057;48.498;32.260;2023-04-25T05:00:27;9.40;99.90
45319;DHT22;31057;48.498;32.260;2023-04-25T05:02:31;9.40;99.90
45319;DHT22;31057;48.498;32.260;2023-04-25T05:04:33;9.50;99.90
45319;DHT22;31057;48.498;32.260;2023-04-25T05:06:35;9.50;99.90
45319;DHT22;31057;48.498;32.260;2023-04-25T05:08:37;9.60;99.90
45319;DHT22;31057;48.498;32.260;2023-04-25T05:10:39;9.80;99.90
45319;DHT22;31057;48.498;32.260;2023-04-25T05:12:41;9.90;99.90
45319;DHT22;31057;48.498;32.260;2023-04-25T05:14:43;10.00;99.90
45319;DHT22;31057;48.498;32.260;2023-04-25T05:16:44;10.00;99.90
45319;DHT22;31057;48.498;32.260;2023-04-25T05:18:48;10.20;99.90
45319;DHT22;31057;48.498;32.260;2023-04-25T05:20:49;10.30;99.90
45319;DHT22;31057;48.498;32.260;2023-04-25T05:22:51;10.50;99.90
45319;DHT22;31057;48.498;32.260;2023-04-25T05:24:53;10.50;99.90
45319;DHT22;31057;48.498;32.260;2023-04-25T05:26:56;10.60;99.90
45319;DHT22;31057;48.498;32.260;2023-04-25T05:28:59;10.70;99.90
45319;DHT22;31057;48.498;32.260;2023-04-25T05:31:01;10.80;99.90
45319;DHT22;31057;48.498;32.260;2023-04-25T05:33:03;11.00;99.90
45319;DHT22;31057;48.498;32.260;2023-04-25T05:35:05;11.10;99.90
45319;DHT22;31057;48.498;32.260;2023-04-25T05:37:08;11.20;99.90
45319;DHT22;31057;48.498;32.260;2023-04-25T05:39:10;11.40;99.90
45319;DHT22;31057;48.498;32.260;2023-04-25T05:41:12;11.60;99.90
45319;DHT22;31057;48.498;32.260;2023-04-25T05:43:14;11.70;99.90
45319;DHT22;31057;48.498;32.260;2023-04-25T05:45:16;11.70;99.90
45319;DHT22;31057;48.498;32.260;2023-04-25T05:47:19;11.80;99.90
45319;DHT22;31057;48.498;32.260;2023-04-25T05:49:21;11.80;99.90
45319;DHT22;31057;48.498;32.260;2023-04-25T05:51:23;11.80;99.90
45319;DHT22;31057;48.498;32.260;2023-04-25T05:53:26;12.10;99.90
45319;DHT22;31057;48.498;32.260;2023-04-25T05:55:28;12.10;99.90
45319;DHT22;31057;48.498;32.260;2023-04-25T05:57:30;12.20;99.90
45319;DHT22;31057;48.498;32.260;2023-04-25T05:59:32;12.50;99.90
45319;DHT22;31057;48.498;32.260;2023-04-25T06:01:34;12.60;99.90
45319;DHT22;31057;48.498;32.260;2023-04-25T06:03:36;12.60;99.90
45319;DHT22;31057;48.498;32.260;2023-04-25T06:05:41;12.70;99.90
45319;DHT22;31057;48.498;32.260;2023-04-25T06:07:44;13.00;99.90
45319;DHT22;31057;48.498;32.260;2023-04-25T06:09:46;13.20;99.90
45319;DHT22;31057;48.498;32.260;2023-04-25T06:11:48;13.20;99.90
45319;DHT22;31057;48.498;32.260;2023-04-25T06:13:50;13.10;99.90
45319;DHT22;31057;48.498;32.260;2023-04-25T06:15:52;13.10;99.90
45319;DHT22;31057;48.498;32.260;2023-04-25T06:17:55;13.30;99.90
45319;DHT22;31057;48.498;32.260;2023-04-25T06:19:57;13.60;99.90
45319;DHT22;31057;48.498;32.260;2023-04-25T06:21:59;13.50;99.90
45319;DHT22;31057;48.498;32.260;2023-04-25T06:24:01;13.40;99.90
45319;DHT22;31057;48.498;32.260;2023-04-25T06:26:03;13.30;99.90
45319;DHT22;31057;48.498;32.260;2023-04-25T06:28:05;13.50;99.90
45319;DHT22;31057;48.498;32.260;2023-04-25T06:30:07;13.70;99.90
45319;DHT22;31057;48.498;32.260;2023-04-25T06:32:09;13.90;99.90
45319;DHT22;31057;48.498;32.260;2023-04-25T06:34:11;14.20;99.90
45319;DHT22;31057;48.498;32.260;2023-04-25T06:36:13;14.30;99.90
45319;DHT22;31057;48.498;32.260;2023-04-25T06:38:15;14.30;99.90
45319;DHT22;31057;48.498;32.260;2023-04-25T06:40:17;14.30;99.90
45319;DHT22;31057;48.498;32.260;2023-04-25T06:42:19;14.30;99.90
45319;DHT22;31057;48.498;32.260;2023-04-25T06:44:21;14.40;99.90
45319;DHT22;31057;48.498;32.260;2023-04-25T06:46:24;14.50;99.90
45319;DHT22;31057;48.498;32.260;2023-04-25T06:48:27;14.40;99.90
45319;DHT22;31057;48.498;32.260;2023-04-25T06:50:28;14.50;99.90
45319;DHT22;31057;48.498;32.260;2023-04-25T06:52:30;14.50;99.90
45319;DHT22;31057;48.498;32.260;2023-04-25T06:54:35;14.60;99.90
45319;DHT22;31057;48.498;32.260;2023-04-25T06:56:37;14.80;99.90
45319;DHT22;31057;48.498;32.260;2023-04-25T06:58:38;14.90;99.90
45319;DHT22;31057;48.498;32.260;2023-04-25T07:00:40;15.00;99.90
45319;DHT22;31057;48.498;32.260;2023-04-25T07:02:42;15.00;99.90
45319;DHT22;31057;48.498;32.260;2023-04-25T07:04:45;15.10;99.90
45319;DHT22;31057;48.498;32.260;2023-04-25T07:06:48;15.10;99.90
45319;DHT22;31057;48.498;32.260;2023-04-25T07:08:50;15.20;99.90
45319;DHT22;31057;48.498;32.260;2023-04-25T07:10:53;15.30;99.90
45319;DHT22;31057;48.498;32.260;2023-04-25T07:12:55;15.40;99.90
45319;DHT22;31057;48.498;32.260;2023-04-25T07:14:57;15.40;99.90
45319;DHT22;31057;48.498;32.260;2023-04-25T07:16:58;15.50;99.90
45319;DHT22;31057;48.498;32.260;2023-04-25T07:19:01;15.60;99.90
45319;DHT22;31057;48.498;32.260;2023-04-25T07:21:03;15.90;99.90
45319;DHT22;31057;48.498;32.260;2023-04-25T07:23:05;15.90;99.90
45319;DHT22;31057;48.498;32.260;2023-04-25T07:25:07;15.80;99.90
45319;DHT22;31057;48.498;32.260;2023-04-25T07:27:10;15.80;99.90
45319;DHT22;31057;48.498;32.260;2023-04-25T07:29:12;15.80;99.90
45319;DHT22;31057;48.498;32.260;2023-04-25T07:31:14;16.00;99.90
45319;DHT22;31057;48.498;32.260;2023-04-25T07:33:18;16.20;99.90
45319;DHT22;31057;48.498;32.260;2023-04-25T07:35:22;16.20;99.90
45319;DHT22;31057;48.498;32.260;2023-04-25T07:37:24;16.20;99.90
45319;DHT22;31057;48.498;32.260;2023-04-25T07:39:27;16.30;99.90
45319;DHT22;31057;48.498;32.260;2023-04-25T07:41:29;16.30;99.90
45319;DHT22;31057;48.498;32.260;2023-04-25T07:43:31;16.20;99.90
45319;DHT22;31057;48.498;32.260;2023-04-25T07:45:33;16.10;99.90
45319;DHT22;31057;48.498;32.260;2023-04-25T07:47:35;16.10;99.90
45319;DHT22;31057;48.498;32.260;2023-04-25T07:49:37;16.30;99.90
45319;DHT22;31057;48.498;32.260;2023-04-25T07:51:39;16.30;99.90
45319;DHT22;31057;48.498;32.260;2023-04-25T07:53:41;16.40;99.90
45319;DHT22;31057;48.498;32.260;2023-04-25T07:55:44;16.70;99.90
45319;DHT22;31057;48.498;32.260;2023-04-25T07:57:45;16.80;99.90
45319;DHT22;31057;48.498;32.260;2023-04-25T07:59:47;16.90;99.90
45319;DHT22;31057;48.498;32.260;2023-04-25T08:01:49;17.00;99.90
45319;DHT22;31057;48.498;32.260;2023-04-25T08:03:51;16.90;99.90
45319;DHT22;31057;48.498;32.260;2023-04-25T08:05:55;16.90;99.90
45319;DHT22;31057;48.498;32.260;2023-04-25T08:07:57;16.80;99.90
45319;DHT22;31057;48.498;32.260;2023-04-25T08:09:59;16.60;99.90
45319;DHT22;31057;48.498;32.260;2023-04-25T08:12:01;16.80;99.90
45319;DHT22;31057;48.498;32.260;2023-04-25T08:14:03;17.00;99.90
45319;DHT22;31057;48.498;32.260;2023-04-25T08:16:05;17.10;99.90
45319;DHT22;31057;48.498;32.260;2023-04-25T08:18:07;17.10;99.90
45319;DHT22;31057;48.498;32.260;2023-04-25T08:20:10;16.90;99.90
45319;DHT22;31057;48.498;32.260;2023-04-25T08:22:12;16.80;99.90
45319;DHT22;31057;48.498;32.260;2023-04-25T08:24:14;17.10;99.90
45319;DHT22;31057;48.498;32.260;2023-04-25T08:26:16;17.30;99.90
45319;DHT22;31057;48.498;32.260;2023-04-25T08:28:18;17.30;99.90
45319;DHT22;31057;48.498;32.260;2023-04-25T08:30:20;17.50;99.90
45319;DHT22;31057;48.498;32.260;2023-04-25T08:32:23;17.60;99.90
45319;DHT22;31057;48.498;32.260;2023-04-25T08:34:24;17.40;99.90
45319;DHT22;31057;48.498;32.260;2023-04-25T08:36:27;16.70;99.90
45319;DHT22;31057;48.498;32.260;2023-04-25T08:38:32;16.80;99.90
45319;DHT22;31057;48.498;32.260;2023-04-25T08:40:38;17.40;99.90
45319;DHT22;31057;48.498;32.260;2023-04-25T08:42:41;17.40;99.90
45319;DHT22;31057;48.498;32.260;2023-04-25T08:44:45;16.90;99.90
45319;DHT22;31057;48.498;32.260;2023-04-25T08:46:48;17.50;99.90
45319;DHT22;31057;48.498;32.260;2023-04-25T08:48:53;17.10;99.90
45319;DHT22;31057;48.498;32.260;2023-04-25T08:50:59;17.10;99.90
45319;DHT22;31057;48.498;32.260;2023-04-25T08:53:04;17.30;99.90
45319;DHT22;31057;48.498;32.260;2023-04-25T08:55:10;17.70;99.90
45319;DHT22;31057;48.498;32.260;2023-04-25T08:57:15;17.60;99.90
45319;DHT22;31057;48.498;32.260;2023-04-25T08:59:17;17.10;99.90
45319;DHT22;31057;48.498;32.260;2023-04-25T09:01:19;16.80;99.90
45319;DHT22;31057;48.498;32.260;2023-04-25T09:03:21;17.20;99.90
45319;DHT22;31057;48.498;32.260;2023-04-25T09:05:23;17.60;99.90
45319;DHT22;31057;48.498;32.260;2023-04-25T09:07:25;17.80;99.90
45319;DHT22;31057;48.498;32.260;2023-04-25T09:09:27;18.30;99.90
45319;DHT22;31057;48.498;32.260;2023-04-25T09:11:29;18.40;99.90
45319;DHT22;31057;48.498;32.260;2023-04-25T09:13:31;18.50;99.90
45319;DHT22;31057;48.498;32.260;2023-04-25T09:15:50;18.50;99.90
45319;DHT22;31057;48.498;32.260;2023-04-25T09:17:56;18.70;99.90
45319;DHT22;31057;48.498;32.260;2023-04-25T09:20:06;18.60;99.90
45319;DHT22;31057;48.498;32.260;2023-04-25T09:22:09;18.50;99.90
45319;DHT22;31057;48.498;32.260;2023-04-25T09:24:11;18.80;99.90
45319;DHT22;31057;48.498;32.260;2023-04-25T09:26:15;18.90;99.90
45319;DHT22;31057;48.498;32.260;2023-04-25T09:28:25;18.80;99.90
45319;DHT22;31057;48.498;32.260;2023-04-25T09:30:35;18.30;99.90
45319;DHT22;31057;48.498;32.260;2023-04-25T09:32:37;17.90;99.90
45319;DHT22;31057;48.498;32.260;2023-04-25T09:34:41;17.80;99.90
45319;DHT22;31057;48.498;32.260;2023-04-25T09:36:43;18.00;99.90
45319;DHT22;31057;48.498;32.260;2023-04-25T09:38:46;18.50;99.90
45319;DHT22;31057;48.498;32.260;2023-04-25T09:40:48;18.70;99.90
45319;DHT22;31057;48.498;32.260;2023-04-25T09:42:51;18.70;99.90
45319;DHT22;31057;48.498;32.260;2023-04-25T09:44:55;18.50;99.90
45319;DHT22;31057;48.498;32.260;2023-04-25T09:46:57;18.10;99.90
45319;DHT22;31057;48.498;32.260;2023-04-25T09:49:06;18.00;99.90
45319;DHT22;31057;48.498;32.260;2023-04-25T09:51:15;18.10;99.90
45319;DHT22;31057;48.498;32.260;2023-04-25T09:53:17;18.40;99.90
45319;DHT22;31057;48.498;32.260;2023-04-25T09:55:19;18.70;99.90
45319;DHT22;31057;48.498;32.260;2023-04-25T09:57:24;19.00;99.90
45319;DHT22;31057;48.498;32.260;2023-04-25T09:59:27;19.30;99.90
45319;DHT22;31057;48.498;32.260;2023-04-25T10:01:30;18.40;99.90
45319;DHT22;31057;48.498;32.260;2023-04-25T10:03:35;18.30;99.90
45319;DHT22;31057;48.498;32.260;2023-04-25T10:05:38;18.80;99.90
45319;DHT22;31057;48.498;32.260;2023-04-25T10:07:42;19.00;99.90
45319;DHT22;31057;48.498;32.260;2023-04-25T10:09:44;18.90;99.90
45319;DHT22;31057;48.498;32.260;2023-04-25T10:11:48;18.80;99.90
45319;DHT22;31057;48.498;32.260;2023-04-25T10:13:50;18.50;99.90
45319;DHT22;31057;48.498;32.260;2023-04-25T10:15:53;18.70;99.90
45319;DHT22;31057;48.498;32.260;2023-04-25T10:17:56;18.70;99.90
45319;DHT22;31057;48.498;32.260;2023-04-25T10:20:03;18.80;99.90
45319;DHT22;31057;48.498;32.260;2023-04-25T10:22:17;19.40;99.90
45319;DHT22;31057;48.498;32.260;2023-04-25T10:24:20;19.90;99.90
45319;DHT22;31057;48.498;32.260;2023-04-25T10:26:23;19.70;99.90
45319;DHT22;31057;48.498;32.260;2023-04-25T10:28:25;19.70;99.90
45319;DHT22;31057;48.498;32.260;2023-04-25T10:30:27;20.10;99.90
45319;DHT22;31057;48.498;32.260;2023-04-25T10:32:30;20.20;99.90
45319;DHT22;31057;48.498;32.260;2023-04-25T10:34:44;19.60;99.90
45319;DHT22;31057;48.498;32.260;2023-04-25T10:36:52;19.80;99.90
45319;DHT22;31057;48.498;32.260;2023-04-25T10:38:54;20.00;99.90
45319;DHT22;31057;48.498;32.260;2023-04-25T10:41:07;19.60;99.90
45319;DHT22;31057;48.498;32.260;2023-04-25T10:45:51;19.90;99.90
45319;DHT22;31057;48.498;32.260;2023-04-25T10:47:53;20.00;99.90
45319;DHT22;31057;48.498;32.260;2023-04-25T10:50:05;19.30;99.90
45319;DHT22;31057;48.498;32.260;2023-04-25T10:54:13;19.40;99.90
45319;DHT22;31057;48.498;32.260;2023-04-25T10:56:20;18.50;99.90
45319;DHT22;31057;48.498;32.260;2023-04-25T10:58:23;18.50;99.90
45319;DHT22;31057;48.498;32.260;2023-04-25T11:00:24;19.30;99.90
45319;DHT22;31057;48.498;32.260;2023-04-25T11:02:58;19.90;99.90
45319;DHT22;31057;48.498;32.260;2023-04-25T11:05:01;20.10;99.90
45319;DHT22;31057;48.498;32.260;2023-04-25T11:07:29;20.00;99.90
45319;DHT22;31057;48.498;32.260;2023-04-25T11:09:35;20.30;99.90
45319;DHT22;31057;48.498;32.260;2023-04-25T11:11:37;20.30;99.90
45319;DHT22;31057;48.498;32.260;2023-04-25T11:13:39;19.80;99.90
45319;DHT22;31057;48.498;32.260;2023-04-25T11:15:41;19.60;99.90
45319;DHT22;31057;48.498;32.260;2023-04-25T11:17:43;19.50;99.90
45319;DHT22;31057;48.498;32.260;2023-04-25T11:19:48;19.90;99.90
45319;DHT22;31057;48.498;32.260;2023-04-25T11:21:54;19.90;99.90
45319;DHT22;31057;48.498;32.260;2023-04-25T11:23:56;20.00;99.90
45319;DHT22;31057;48.498;32.260;2023-04-25T11:25:59;20.20;99.90
45319;DHT22;31057;48.498;32.260;2023-04-25T11:28:02;20.20;99.90
45319;DHT22;31057;48.498;32.260;2023-04-25T11:30:13;20.30;99.90
45319;DHT22;31057;48.498;32.260;2023-04-25T11:32:17;20.20;99.90
45319;DHT22;31057;48.498;32.260;2023-04-25T11:34:22;20.30;99.90
45319;DHT22;31057;48.498;32.260;2023-04-25T11:36:24;20.30;99.90
45319;DHT22;31057;48.498;32.260;2023-04-25T11:38:27;20.50;99.90
45319;DHT22;31057;48.498;32.260;2023-04-25T11:40:30;20.10;99.90
45319;DHT22;31057;48.498;32.260;2023-04-25T11:42:33;20.10;99.90
45319;DHT22;31057;48.498;32.260;2023-04-25T11:44:35;19.10;99.90
45319;DHT22;31057;48.498;32.260;2023-04-25T11:46:38;19.50;99.90
45319;DHT22;31057;48.498;32.260;2023-04-25T11:48:42;19.80;99.90
45319;DHT22;31057;48.498;32.260;2023-04-25T11:50:44;20.20;99.90
45319;DHT22;31057;48.498;32.260;2023-04-25T11:52:47;20.50;99.90
45319;DHT22;31057;48.498;32.260;2023-04-25T11:54:49;20.40;99.90
45319;DHT22;31057;48.498;32.260;2023-04-25T11:56:51;20.50;99.90
45319;DHT22;31057;48.498;32.260;2023-04-25T11:58:53;20.50;99.90
45319;DHT22;31057;48.498;32.260;2023-04-25T12:00:56;20.60;99.90
45319;DHT22;31057;48.498;32.260;2023-04-25T12:03:00;20.50;99.90
45319;DHT22;31057;48.498;32.260;2023-04-25T12:05:08;20.50;99.90
45319;DHT22;31057;48.498;32.260;2023-04-25T12:07:30;20.50;99.90
45319;DHT22;31057;48.498;32.260;2023-04-25T12:09:33;20.50;99.90
45319;DHT22;31057;48.498;32.260;2023-04-25T12:11:46;20.50;99.90
45319;DHT22;31057;48.498;32.260;2023-04-25T12:13:51;20.40;99.90
45319;DHT22;31057;48.498;32.260;2023-04-25T12:15:55;20.20;99.90
45319;DHT22;31057;48.498;32.260;2023-04-25T12:17:58;19.80;99.90
45319;DHT22;31057;48.498;32.260;2023-04-25T12:20:06;19.30;99.90
45319;DHT22;31057;48.498;32.260;2023-04-25T12:22:23;19.20;99.90
45319;DHT22;31057;48.498;32.260;2023-04-25T12:24:26;18.90;99.90
45319;DHT22;31057;48.498;32.260;2023-04-25T12:28:50;18.70;99.90
45319;DHT22;31057;48.498;32.260;2023-04-25T12:31:03;18.70;99.90
45319;DHT22;31057;48.498;32.260;2023-04-25T12:33:06;18.80;99.90
45319;DHT22;31057;48.498;32.260;2023-04-25T12:35:08;18.90;99.90
45319;DHT22;31057;48.498;32.260;2023-04-25T12:37:10;18.80;99.90
45319;DHT22;31057;48.498;32.260;2023-04-25T12:39:19;18.90;99.90
45319;DHT22;31057;48.498;32.260;2023-04-25T12:41:21;18.90;99.90
45319;DHT22;31057;48.498;32.260;2023-04-25T12:43:24;19.00;99.90
45319;DHT22;31057;48.498;32.260;2023-04-25T12:45:26;19.00;99.90
45319;DHT22;31057;48.498;32.260;2023-04-25T12:47:28;19.50;99.90
45319;DHT22;31057;48.498;32.260;2023-04-25T12:49:29;20.00;99.90
45319;DHT22;31057;48.498;32.260;2023-04-25T12:51:31;20.50;99.90
45319;DHT22;31057;48.498;32.260;2023-04-25T12:53:34;20.80;99.90
45319;DHT22;31057;48.498;32.260;2023-04-25T12:55:39;20.70;99.90
45319;DHT22;31057;48.498;32.260;2023-04-25T12:57:41;20.30;99.90